sensor_id;sensor_type;location;lat;lon;timestamp;P1;durP1;ratioP1;P2;durP2;ratioP2
7693;SDS011;3889;48.162;11.510;2023-03-03T00:01:01;55.65;;;43.38;;
7693;SDS011;3889;48.162;11.510;2023-03-03T00:03:30;55.03;;;43.53;;
7693;SDS011;3889;48.162;11.510;2023-03-03T00:05:59;56.00;;;44.22;;
7693;SDS011;3889;48.162;11.510;2023-03-03T00:08:28;59.10;;;45.58;;
7693;SDS011;3889;48.162;11.510;2023-03-03T00:10:56;51.08;;;41.40;;
7693;SDS011;3889;48.162;11.510;2023-03-03T00:13:26;49.85;;;41.20;;
7693;SDS011;3889;48.162;11.510;2023-03-03T00:15:54;51.50;;;42.22;;
7693;SDS011;3889;48.162;11.510;2023-03-03T00:18:40;58.50;;;44.33;;
7693;SDS011;3889;48.162;11.510;2023-03-03T00:21:16;53.90;;;42.70;;
7693;SDS011;3889;48.162;11.510;2023-03-03T00:23:52;52.17;;;42.85;;
7693;SDS011;3889;48.162;11.510;2023-03-03T00:26:21;53.55;;;42.15;;
7693;SDS011;3889;48.162;11.510;2023-03-03T00:28:52;52.28;;;41.45;;
7693;SDS011;3889;48.162;11.510;2023-03-03T00:31:23;49.88;;;40.75;;
7693;SDS011;3889;48.162;11.510;2023-03-03T00:34:09;54.17;;;43.22;;
7693;SDS011;3889;48.162;11.510;2023-03-03T00:36:47;52.00;;;42.00;;
7693;SDS011;3889;48.162;11.510;2023-03-03T00:39:21;53.38;;;42.13;;
7693;SDS011;3889;48.162;11.510;2023-03-03T00:41:53;53.72;;;43.95;;
7693;SDS011;3889;48.162;11.510;2023-03-03T00:44:34;56.70;;;44.23;;
7693;SDS011;3889;48.162;11.510;2023-03-03T00:47:12;54.33;;;42.90;;
7693;SDS011;3889;48.162;11.510;2023-03-03T00:52:52;52.22;;;42.40;;
7693;SDS011;3889;48.162;11.510;2023-03-03T00:55:30;55.33;;;42.42;;
7693;SDS011;3889;48.162;11.510;2023-03-03T00:57:59;55.35;;;43.70;;
7693;SDS011;3889;48.162;11.510;2023-03-03T01:00:26;54.42;;;42.53;;
7693;SDS011;3889;48.162;11.510;2023-03-03T01:02:54;56.15;;;43.03;;
7693;SDS011;3889;48.162;11.510;2023-03-03T01:05:22;52.92;;;42.60;;
7693;SDS011;3889;48.162;11.510;2023-03-03T01:07:50;54.50;;;43.33;;
7693;SDS011;3889;48.162;11.510;2023-03-03T01:10:18;51.58;;;42.17;;
7693;SDS011;3889;48.162;11.510;2023-03-03T01:12:47;53.53;;;42.60;;
7693;SDS011;3889;48.162;11.510;2023-03-03T01:15:15;53.08;;;41.88;;
7693;SDS011;3889;48.162;11.510;2023-03-03T01:17:44;52.08;;;41.22;;
7693;SDS011;3889;48.162;11.510;2023-03-03T01:20:12;54.13;;;41.27;;
7693;SDS011;3889;48.162;11.510;2023-03-03T01:22:41;51.15;;;40.08;;
7693;SDS011;3889;48.162;11.510;2023-03-03T01:25:09;52.88;;;42.28;;
7693;SDS011;3889;48.162;11.510;2023-03-03T01:27:37;48.70;;;40.08;;
7693;SDS011;3889;48.162;11.510;2023-03-03T01:30:07;54.25;;;43.67;;
7693;SDS011;3889;48.162;11.510;2023-03-03T01:32:36;55.60;;;43.53;;
7693;SDS011;3889;48.162;11.510;2023-03-03T01:35:04;55.67;;;43.37;;
7693;SDS011;3889;48.162;11.510;2023-03-03T01:37:33;54.65;;;42.55;;
7693;SDS011;3889;48.162;11.510;2023-03-03T01:40:02;53.63;;;41.80;;
7693;SDS011;3889;48.162;11.510;2023-03-03T01:42:30;48.92;;;41.55;;
7693;SDS011;3889;48.162;11.510;2023-03-03T01:47:57;52.88;;;42.15;;
7693;SDS011;3889;48.162;11.510;2023-03-03T01:50:30;55.67;;;44.55;;
7693;SDS011;3889;48.162;11.510;2023-03-03T01:53:05;55.10;;;43.72;;
7693;SDS011;3889;48.162;11.510;2023-03-03T01:55:38;51.95;;;41.70;;
7693;SDS011;3889;48.162;11.510;2023-03-03T01:58:09;51.00;;;41.65;;
7693;SDS011;3889;48.162;11.510;2023-03-03T02:00:41;51.33;;;40.90;;
7693;SDS011;3889;48.162;11.510;2023-03-03T02:03:11;49.33;;;40.67;;
7693;SDS011;3889;48.162;11.510;2023-03-03T02:05:39;54.60;;;41.88;;
7693;SDS011;3889;48.162;11.510;2023-03-03T02:08:08;51.03;;;41.47;;
7693;SDS011;3889;48.162;11.510;2023-03-03T02:10:38;51.35;;;40.50;;
7693;SDS011;3889;48.162;11.510;2023-03-03T02:13:06;54.33;;;43.00;;
7693;SDS011;3889;48.162;11.510;2023-03-03T02:15:34;56.53;;;45.20;;
7693;SDS011;3889;48.162;11.510;2023-03-03T02:18:04;57.80;;;44.65;;
7693;SDS011;3889;48.162;11.510;2023-03-03T02:20:38;54.80;;;43.00;;
7693;SDS011;3889;48.162;11.510;2023-03-03T02:23:14;55.33;;;44.08;;
7693;SDS011;3889;48.162;11.510;2023-03-03T02:25:47;55.47;;;43.77;;
7693;SDS011;3889;48.162;11.510;2023-03-03T02:28:26;55.42;;;43.15;;
7693;SDS011;3889;48.162;11.510;2023-03-03T02:30:57;54.67;;;43.97;;
7693;SDS011;3889;48.162;11.510;2023-03-03T02:33:27;53.47;;;43.50;;
7693;SDS011;3889;48.162;11.510;2023-03-03T02:35:55;54.60;;;42.70;;
7693;SDS011;3889;48.162;11.510;2023-03-03T02:38:24;56.42;;;44.58;;
7693;SDS011;3889;48.162;11.510;2023-03-03T02:40:58;52.78;;;43.03;;
7693;SDS011;3889;48.162;11.510;2023-03-03T02:43:32;51.60;;;41.13;;
7693;SDS011;3889;48.162;11.510;2023-03-03T02:46:07;52.40;;;42.08;;
7693;SDS011;3889;48.162;11.510;2023-03-03T02:48:34;50.90;;;41.53;;
7693;SDS011;3889;48.162;11.510;2023-03-03T02:51:03;52.67;;;43.13;;
7693;SDS011;3889;48.162;11.510;2023-03-03T02:53:31;52.75;;;43.65;;
7693;SDS011;3889;48.162;11.510;2023-03-03T02:55:58;54.00;;;43.00;;
7693;SDS011;3889;48.162;11.510;2023-03-03T02:58:26;53.22;;;43.33;;
7693;SDS011;3889;48.162;11.510;2023-03-03T03:00:55;54.63;;;43.33;;
7693;SDS011;3889;48.162;11.510;2023-03-03T03:03:23;53.78;;;42.97;;
7693;SDS011;3889;48.162;11.510;2023-03-03T03:05:51;55.03;;;43.97;;
7693;SDS011;3889;48.162;11.510;2023-03-03T03:08:19;54.17;;;43.67;;
7693;SDS011;3889;48.162;11.510;2023-03-03T03:10:47;53.33;;;42.30;;
7693;SDS011;3889;48.162;11.510;2023-03-03T03:13:15;53.63;;;43.25;;
7693;SDS011;3889;48.162;11.510;2023-03-03T03:15:44;53.03;;;42.42;;
7693;SDS011;3889;48.162;11.510;2023-03-03T03:18:14;53.50;;;42.75;;
7693;SDS011;3889;48.162;11.510;2023-03-03T03:20:42;55.37;;;44.50;;
7693;SDS011;3889;48.162;11.510;2023-03-03T03:23:13;55.03;;;44.17;;
7693;SDS011;3889;48.162;11.510;2023-03-03T03:25:41;55.40;;;44.42;;
7693;SDS011;3889;48.162;11.510;2023-03-03T03:28:11;58.67;;;45.55;;
7693;SDS011;3889;48.162;11.510;2023-03-03T03:30:41;52.67;;;42.25;;
7693;SDS011;3889;48.162;11.510;2023-03-03T03:33:09;54.93;;;44.80;;
7693;SDS011;3889;48.162;11.510;2023-03-03T03:35:38;56.83;;;44.75;;
7693;SDS011;3889;48.162;11.510;2023-03-03T03:38:10;54.08;;;42.90;;
7693;SDS011;3889;48.162;11.510;2023-03-03T03:40:38;52.17;;;42.92;;
7693;SDS011;3889;48.162;11.510;2023-03-03T03:43:07;51.90;;;42.88;;
7693;SDS011;3889;48.162;11.510;2023-03-03T03:45:35;53.17;;;43.83;;
7693;SDS011;3889;48.162;11.510;2023-03-03T03:48:02;53.08;;;41.70;;
7693;SDS011;3889;48.162;11.510;2023-03-03T03:50:30;52.42;;;42.15;;
7693;SDS011;3889;48.162;11.510;2023-03-03T03:53:00;53.20;;;43.65;;
7693;SDS011;3889;48.162;11.510;2023-03-03T03:55:28;52.83;;;42.33;;
7693;SDS011;3889;48.162;11.510;2023-03-03T03:57:56;52.78;;;42.75;;
7693;SDS011;3889;48.162;11.510;2023-03-03T04:00:24;51.05;;;42.80;;
7693;SDS011;3889;48.162;11.510;2023-03-03T04:02:52;54.20;;;44.58;;
7693;SDS011;3889;48.162;11.510;2023-03-03T04:05:20;51.10;;;43.78;;
7693;SDS011;3889;48.162;11.510;2023-03-03T04:07:48;53.35;;;43.60;;
7693;SDS011;3889;48.162;11.510;2023-03-03T04:10:18;54.50;;;44.88;;
7693;SDS011;3889;48.162;11.510;2023-03-03T04:12:45;53.22;;;43.45;;
7693;SDS011;3889;48.162;11.510;2023-03-03T04:15:13;53.03;;;42.63;;
7693;SDS011;3889;48.162;11.510;2023-03-03T04:17:41;53.97;;;43.13;;
7693;SDS011;3889;48.162;11.510;2023-03-03T04:20:10;57.13;;;44.20;;
7693;SDS011;3889;48.162;11.510;2023-03-03T04:22:40;55.63;;;44.90;;
7693;SDS011;3889;48.162;11.510;2023-03-03T04:25:08;56.85;;;45.35;;
7693;SDS011;3889;48.162;11.510;2023-03-03T04:27:41;54.47;;;43.53;;
7693;SDS011;3889;48.162;11.510;2023-03-03T04:30:10;58.38;;;44.72;;
7693;SDS011;3889;48.162;11.510;2023-03-03T04:32:39;51.63;;;41.55;;
7693;SDS011;3889;48.162;11.510;2023-03-03T04:35:07;53.28;;;42.38;;
7693;SDS011;3889;48.162;11.510;2023-03-03T04:37:36;52.55;;;43.63;;
7693;SDS011;3889;48.162;11.510;2023-03-03T04:40:05;51.08;;;42.40;;
7693;SDS011;3889;48.162;11.510;2023-03-03T04:42:34;58.55;;;45.83;;
7693;SDS011;3889;48.162;11.510;2023-03-03T04:45:04;58.75;;;45.47;;
7693;SDS011;3889;48.162;11.510;2023-03-03T04:47:33;54.42;;;44.45;;
7693;SDS011;3889;48.162;11.510;2023-03-03T04:50:00;53.73;;;44.23;;
7693;SDS011;3889;48.162;11.510;2023-03-03T04:52:29;53.83;;;43.22;;
7693;SDS011;3889;48.162;11.510;2023-03-03T04:54:57;54.45;;;44.40;;
7693;SDS011;3889;48.162;11.510;2023-03-03T04:57:24;55.92;;;44.75;;
7693;SDS011;3889;48.162;11.510;2023-03-03T04:59:53;53.65;;;44.10;;
7693;SDS011;3889;48.162;11.510;2023-03-03T05:02:22;55.92;;;45.88;;
7693;SDS011;3889;48.162;11.510;2023-03-03T05:04:50;54.30;;;43.40;;
7693;SDS011;3889;48.162;11.510;2023-03-03T05:07:18;52.50;;;42.95;;
7693;SDS011;3889;48.162;11.510;2023-03-03T05:09:46;54.38;;;45.40;;
7693;SDS011;3889;48.162;11.510;2023-03-03T05:12:14;53.03;;;43.33;;
7693;SDS011;3889;48.162;11.510;2023-03-03T05:14:42;52.75;;;43.90;;
7693;SDS011;3889;48.162;11.510;2023-03-03T05:17:10;58.20;;;46.33;;
7693;SDS011;3889;48.162;11.510;2023-03-03T05:19:39;54.03;;;44.95;;
7693;SDS011;3889;48.162;11.510;2023-03-03T05:22:07;52.78;;;44.33;;
7693;SDS011;3889;48.162;11.510;2023-03-03T05:24:35;58.72;;;46.78;;
7693;SDS011;3889;48.162;11.510;2023-03-03T05:27:03;58.28;;;47.10;;
7693;SDS011;3889;48.162;11.510;2023-03-03T05:29:31;55.90;;;45.70;;
7693;SDS011;3889;48.162;11.510;2023-03-03T05:31:59;57.40;;;45.92;;
7693;SDS011;3889;48.162;11.510;2023-03-03T05:34:26;55.53;;;45.28;;
7693;SDS011;3889;48.162;11.510;2023-03-03T05:36:56;58.70;;;47.05;;
7693;SDS011;3889;48.162;11.510;2023-03-03T05:39:24;61.40;;;48.40;;
7693;SDS011;3889;48.162;11.510;2023-03-03T05:41:52;57.83;;;47.13;;
7693;SDS011;3889;48.162;11.510;2023-03-03T05:44:21;58.00;;;45.97;;
7693;SDS011;3889;48.162;11.510;2023-03-03T05:46:48;58.53;;;45.70;;
7693;SDS011;3889;48.162;11.510;2023-03-03T05:49:16;53.58;;;43.50;;
7693;SDS011;3889;48.162;11.510;2023-03-03T05:51:44;58.00;;;45.43;;
7693;SDS011;3889;48.162;11.510;2023-03-03T05:54:13;56.22;;;44.65;;
7693;SDS011;3889;48.162;11.510;2023-03-03T05:56:41;58.38;;;46.20;;
7693;SDS011;3889;48.162;11.510;2023-03-03T05:59:09;58.17;;;45.22;;
7693;SDS011;3889;48.162;11.510;2023-03-03T06:01:37;55.30;;;45.97;;
7693;SDS011;3889;48.162;11.510;2023-03-03T06:04:05;58.33;;;46.55;;
7693;SDS011;3889;48.162;11.510;2023-03-03T06:06:33;59.00;;;47.33;;
7693;SDS011;3889;48.162;11.510;2023-03-03T06:09:01;56.25;;;45.60;;
7693;SDS011;3889;48.162;11.510;2023-03-03T06:11:31;61.53;;;47.83;;
7693;SDS011;3889;48.162;11.510;2023-03-03T06:13:59;61.25;;;48.60;;
7693;SDS011;3889;48.162;11.510;2023-03-03T06:16:26;61.25;;;48.90;;
7693;SDS011;3889;48.162;11.510;2023-03-03T06:18:54;61.53;;;49.10;;
7693;SDS011;3889;48.162;11.510;2023-03-03T06:21:22;59.20;;;47.10;;
7693;SDS011;3889;48.162;11.510;2023-03-03T06:23:50;61.08;;;48.22;;
7693;SDS011;3889;48.162;11.510;2023-03-03T06:26:18;67.00;;;51.03;;
7693;SDS011;3889;48.162;11.510;2023-03-03T06:28:47;63.83;;;49.97;;
7693;SDS011;3889;48.162;11.510;2023-03-03T06:31:19;64.95;;;51.45;;
7693;SDS011;3889;48.162;11.510;2023-03-03T06:33:47;63.50;;;50.97;;
7693;SDS011;3889;48.162;11.510;2023-03-03T06:36:14;69.70;;;51.95;;
7693;SDS011;3889;48.162;11.510;2023-03-03T06:38:42;60.97;;;48.08;;
7693;SDS011;3889;48.162;11.510;2023-03-03T06:41:10;64.57;;;50.25;;
7693;SDS011;3889;48.162;11.510;2023-03-03T06:43:38;64.28;;;50.28;;
7693;SDS011;3889;48.162;11.510;2023-03-03T06:46:07;63.75;;;50.45;;
7693;SDS011;3889;48.162;11.510;2023-03-03T06:48:35;64.10;;;51.10;;
7693;SDS011;3889;48.162;11.510;2023-03-03T06:51:08;67.00;;;51.55;;
7693;SDS011;3889;48.162;11.510;2023-03-03T06:53:47;63.50;;;51.00;;
7693;SDS011;3889;48.162;11.510;2023-03-03T06:56:15;69.63;;;52.65;;
7693;SDS011;3889;48.162;11.510;2023-03-03T06:58:44;67.78;;;52.75;;
7693;SDS011;3889;48.162;11.510;2023-03-03T07:01:14;63.92;;;51.17;;
7693;SDS011;3889;48.162;11.510;2023-03-03T07:03:43;65.93;;;52.85;;
7693;SDS011;3889;48.162;11.510;2023-03-03T07:06:15;64.80;;;52.00;;
7693;SDS011;3889;48.162;11.510;2023-03-03T07:08:48;67.03;;;52.15;;
7693;SDS011;3889;48.162;11.510;2023-03-03T07:11:17;68.53;;;52.70;;
7693;SDS011;3889;48.162;11.510;2023-03-03T07:13:47;64.80;;;53.13;;
7693;SDS011;3889;48.162;11.510;2023-03-03T07:16:18;68.35;;;53.08;;
7693;SDS011;3889;48.162;11.510;2023-03-03T07:18:51;64.20;;;50.83;;
7693;SDS011;3889;48.162;11.510;2023-03-03T07:21:21;67.43;;;51.85;;
7693;SDS011;3889;48.162;11.510;2023-03-03T07:23:51;66.50;;;53.58;;
7693;SDS011;3889;48.162;11.510;2023-03-03T07:26:20;67.57;;;53.75;;
7693;SDS011;3889;48.162;11.510;2023-03-03T07:28:52;68.03;;;52.35;;
7693;SDS011;3889;48.162;11.510;2023-03-03T07:31:33;64.75;;;52.00;;
7693;SDS011;3889;48.162;11.510;2023-03-03T07:34:03;67.18;;;53.38;;
7693;SDS011;3889;48.162;11.510;2023-03-03T07:36:40;69.15;;;53.38;;
7693;SDS011;3889;48.162;11.510;2023-03-03T07:39:17;69.13;;;53.90;;
7693;SDS011;3889;48.162;11.510;2023-03-03T07:41:53;69.82;;;53.28;;
7693;SDS011;3889;48.162;11.510;2023-03-03T07:44:25;66.60;;;53.25;;
7693;SDS011;3889;48.162;11.510;2023-03-03T07:47:03;69.63;;;53.88;;
7693;SDS011;3889;48.162;11.510;2023-03-03T07:49:43;62.40;;;52.42;;
7693;SDS011;3889;48.162;11.510;2023-03-03T07:52:23;67.05;;;51.85;;
7693;SDS011;3889;48.162;11.510;2023-03-03T07:54:54;68.50;;;52.72;;
7693;SDS011;3889;48.162;11.510;2023-03-03T07:57:24;64.50;;;51.58;;
7693;SDS011;3889;48.162;11.510;2023-03-03T07:59:54;68.05;;;53.38;;
7693;SDS011;3889;48.162;11.510;2023-03-03T08:02:34;67.40;;;52.75;;
7693;SDS011;3889;48.162;11.510;2023-03-03T08:05:20;65.03;;;52.78;;
7693;SDS011;3889;48.162;11.510;2023-03-03T08:08:02;67.50;;;52.55;;
7693;SDS011;3889;48.162;11.510;2023-03-03T08:10:43;63.47;;;50.67;;
7693;SDS011;3889;48.162;11.510;2023-03-03T08:13:18;63.78;;;51.35;;
7693;SDS011;3889;48.162;11.510;2023-03-03T08:15:48;60.78;;;49.88;;
7693;SDS011;3889;48.162;11.510;2023-03-03T08:18:20;60.00;;;50.53;;
7693;SDS011;3889;48.162;11.510;2023-03-03T08:20:54;64.50;;;51.80;;
7693;SDS011;3889;48.162;11.510;2023-03-03T08:23:24;60.30;;;50.80;;
7693;SDS011;3889;48.162;11.510;2023-03-03T08:25:52;61.17;;;49.97;;
7693;SDS011;3889;48.162;11.510;2023-03-03T08:28:20;61.53;;;51.27;;
7693;SDS011;3889;48.162;11.510;2023-03-03T08:30:48;61.95;;;50.88;;
7693;SDS011;3889;48.162;11.510;2023-03-03T08:33:26;57.95;;;50.22;;
7693;SDS011;3889;48.162;11.510;2023-03-03T08:35:54;61.07;;;50.40;;
7693;SDS011;3889;48.162;11.510;2023-03-03T08:38:22;59.15;;;49.60;;
7693;SDS011;3889;48.162;11.510;2023-03-03T08:40:50;60.72;;;50.35;;
7693;SDS011;3889;48.162;11.510;2023-03-03T08:43:18;61.58;;;50.10;;
7693;SDS011;3889;48.162;11.510;2023-03-03T08:45:48;63.53;;;51.92;;
7693;SDS011;3889;48.162;11.510;2023-03-03T08:48:17;61.38;;;50.28;;
7693;SDS011;3889;48.162;11.510;2023-03-03T08:50:47;58.28;;;50.17;;
7693;SDS011;3889;48.162;11.510;2023-03-03T08:53:15;56.80;;;48.43;;
7693;SDS011;3889;48.162;11.510;2023-03-03T08:55:44;59.88;;;49.38;;
7693;SDS011;3889;48.162;11.510;2023-03-03T08:58:12;58.78;;;49.90;;
7693;SDS011;3889;48.162;11.510;2023-03-03T09:00:40;63.38;;;50.75;;
7693;SDS011;3889;48.162;11.510;2023-03-03T09:03:12;60.70;;;50.17;;
7693;SDS011;3889;48.162;11.510;2023-03-03T09:05:40;60.50;;;50.63;;
7693;SDS011;3889;48.162;11.510;2023-03-03T09:08:11;57.47;;;48.78;;
7693;SDS011;3889;48.162;11.510;2023-03-03T09:10:39;59.70;;;49.85;;
7693;SDS011;3889;48.162;11.510;2023-03-03T09:13:10;57.83;;;48.92;;
7693;SDS011;3889;48.162;11.510;2023-03-03T09:15:40;58.00;;;50.08;;
7693;SDS011;3889;48.162;11.510;2023-03-03T09:18:15;58.95;;;49.67;;
7693;SDS011;3889;48.162;11.510;2023-03-03T09:20:44;59.40;;;49.25;;
7693;SDS011;3889;48.162;11.510;2023-03-03T09:23:34;58.88;;;48.47;;
7693;SDS011;3889;48.162;11.510;2023-03-03T09:26:22;56.63;;;48.33;;
7693;SDS011;3889;48.162;11.510;2023-03-03T09:28:58;57.25;;;48.78;;
7693;SDS011;3889;48.162;11.510;2023-03-03T09:31:33;60.30;;;49.90;;
7693;SDS011;3889;48.162;11.510;2023-03-03T09:34:09;61.40;;;50.50;;
7693;SDS011;3889;48.162;11.510;2023-03-03T09:36:46;58.22;;;49.28;;
7693;SDS011;3889;48.162;11.510;2023-03-03T09:39:17;60.85;;;50.05;;
7693;SDS011;3889;48.162;11.510;2023-03-03T09:47:43;59.38;;;50.13;;
7693;SDS011;3889;48.162;11.510;2023-03-03T09:50:22;58.28;;;50.40;;
7693;SDS011;3889;48.162;11.510;2023-03-03T09:52:59;58.10;;;49.17;;
7693;SDS011;3889;48.162;11.510;2023-03-03T09:55:38;58.55;;;49.15;;
7693;SDS011;3889;48.162;11.510;2023-03-03T09:58:15;55.90;;;49.00;;
7693;SDS011;3889;48.162;11.510;2023-03-03T10:00:55;57.83;;;50.42;;
7693;SDS011;3889;48.162;11.510;2023-03-03T10:06:37;59.63;;;50.00;;
7693;SDS011;3889;48.162;11.510;2023-03-03T10:12:23;59.28;;;48.75;;
7693;SDS011;3889;48.162;11.510;2023-03-03T10:15:13;57.53;;;49.15;;
7693;SDS011;3889;48.162;11.510;2023-03-03T10:17:47;55.45;;;47.63;;
7693;SDS011;3889;48.162;11.510;2023-03-03T10:20:25;55.40;;;47.80;;
7693;SDS011;3889;48.162;11.510;2023-03-03T10:23:20;56.42;;;48.78;;
7693;SDS011;3889;48.162;11.510;2023-03-03T10:25:55;55.92;;;48.55;;
7693;SDS011;3889;48.162;11.510;2023-03-03T10:28:57;56.10;;;48.25;;
7693;SDS011;3889;48.162;11.510;2023-03-03T10:31:42;58.78;;;48.45;;
7693;SDS011;3889;48.162;11.510;2023-03-03T10:34:21;61.92;;;49.05;;
7693;SDS011;3889;48.162;11.510;2023-03-03T10:37:06;57.75;;;48.08;;
7693;SDS011;3889;48.162;11.510;2023-03-03T10:39:47;56.75;;;48.15;;
7693;SDS011;3889;48.162;11.510;2023-03-03T10:45:41;55.30;;;47.00;;
7693;SDS011;3889;48.162;11.510;2023-03-03T10:48:27;58.63;;;49.10;;
7693;SDS011;3889;48.162;11.510;2023-03-03T10:51:07;53.13;;;47.28;;
7693;SDS011;3889;48.162;11.510;2023-03-03T10:53:47;58.95;;;48.20;;
7693;SDS011;3889;48.162;11.510;2023-03-03T10:56:33;56.30;;;48.15;;
7693;SDS011;3889;48.162;11.510;2023-03-03T11:02:14;55.40;;;46.42;;
7693;SDS011;3889;48.162;11.510;2023-03-03T11:04:50;54.40;;;48.00;;
7693;SDS011;3889;48.162;11.510;2023-03-03T11:07:32;54.75;;;47.22;;
7693;SDS011;3889;48.162;11.510;2023-03-03T11:10:20;56.22;;;47.47;;
7693;SDS011;3889;48.162;11.510;2023-03-03T11:12:59;53.43;;;47.33;;
7693;SDS011;3889;48.162;11.510;2023-03-03T11:15:40;53.65;;;47.00;;
7693;SDS011;3889;48.162;11.510;2023-03-03T11:18:24;54.33;;;47.83;;
7693;SDS011;3889;48.162;11.510;2023-03-03T11:21:04;54.88;;;47.65;;
7693;SDS011;3889;48.162;11.510;2023-03-03T11:23:49;54.60;;;47.72;;
7693;SDS011;3889;48.162;11.510;2023-03-03T11:26:37;58.27;;;49.60;;
7693;SDS011;3889;48.162;11.510;2023-03-03T11:32:15;52.72;;;46.80;;
7693;SDS011;3889;48.162;11.510;2023-03-03T11:34:54;52.25;;;46.45;;
7693;SDS011;3889;48.162;11.510;2023-03-03T11:37:28;55.47;;;47.75;;
7693;SDS011;3889;48.162;11.510;2023-03-03T11:40:10;57.97;;;47.55;;
7693;SDS011;3889;48.162;11.510;2023-03-03T11:42:45;52.28;;;45.90;;
7693;SDS011;3889;48.162;11.510;2023-03-03T11:45:25;53.40;;;46.85;;
7693;SDS011;3889;48.162;11.510;2023-03-03T11:47:58;54.10;;;47.47;;
7693;SDS011;3889;48.162;11.510;2023-03-03T11:50:35;54.20;;;47.53;;
7693;SDS011;3889;48.162;11.510;2023-03-03T11:53:14;57.08;;;47.83;;
7693;SDS011;3889;48.162;11.510;2023-03-03T11:55:54;54.20;;;46.20;;
7693;SDS011;3889;48.162;11.510;2023-03-03T11:58:26;53.47;;;47.20;;
7693;SDS011;3889;48.162;11.510;2023-03-03T12:00:58;53.47;;;47.00;;
7693;SDS011;3889;48.162;11.510;2023-03-03T12:03:35;52.92;;;46.83;;
7693;SDS011;3889;48.162;11.510;2023-03-03T12:06:12;52.90;;;47.10;;
7693;SDS011;3889;48.162;11.510;2023-03-03T12:11:43;51.47;;;43.97;;
7693;SDS011;3889;48.162;11.510;2023-03-03T12:14:17;52.03;;;46.33;;
7693;SDS011;3889;48.162;11.510;2023-03-03T12:17:04;53.63;;;46.17;;
7693;SDS011;3889;48.162;11.510;2023-03-03T12:19:40;51.63;;;46.10;;
7693;SDS011;3889;48.162;11.510;2023-03-03T12:22:21;52.53;;;45.15;;
7693;SDS011;3889;48.162;11.510;2023-03-03T12:27:49;53.22;;;46.83;;
7693;SDS011;3889;48.162;11.510;2023-03-03T12:30:27;52.60;;;46.15;;
7693;SDS011;3889;48.162;11.510;2023-03-03T12:33:30;55.90;;;46.83;;
7693;SDS011;3889;48.162;11.510;2023-03-03T12:36:09;51.63;;;45.73;;
7693;SDS011;3889;48.162;11.510;2023-03-03T12:38:50;53.37;;;46.30;;
7693;SDS011;3889;48.162;11.510;2023-03-03T12:41:25;55.03;;;47.63;;
7693;SDS011;3889;48.162;11.510;2023-03-03T12:44:00;56.55;;;48.20;;
7693;SDS011;3889;48.162;11.510;2023-03-03T12:46:34;52.35;;;46.22;;
7693;SDS011;3889;48.162;11.510;2023-03-03T12:49:10;52.85;;;46.55;;
7693;SDS011;3889;48.162;11.510;2023-03-03T12:51:45;53.93;;;48.03;;
7693;SDS011;3889;48.162;11.510;2023-03-03T12:57:22;54.05;;;48.15;;
7693;SDS011;3889;48.162;11.510;2023-03-03T13:00:02;56.97;;;48.47;;
7693;SDS011;3889;48.162;11.510;2023-03-03T13:02:48;55.72;;;48.70;;
7693;SDS011;3889;48.162;11.510;2023-03-03T13:05:26;51.80;;;45.78;;
7693;SDS011;3889;48.162;11.510;2023-03-03T13:08:05;51.85;;;46.08;;
7693;SDS011;3889;48.162;11.510;2023-03-03T13:10:56;52.33;;;46.00;;
7693;SDS011;3889;48.162;11.510;2023-03-03T13:13:32;50.17;;;44.38;;
7693;SDS011;3889;48.162;11.510;2023-03-03T13:16:08;51.30;;;45.65;;
7693;SDS011;3889;48.162;11.510;2023-03-03T13:18:47;53.80;;;48.00;;
7693;SDS011;3889;48.162;11.510;2023-03-03T13:21:23;58.35;;;49.28;;
7693;SDS011;3889;48.162;11.510;2023-03-03T13:23:59;51.75;;;46.10;;
7693;SDS011;3889;48.162;11.510;2023-03-03T13:26:35;53.28;;;45.78;;
7693;SDS011;3889;48.162;11.510;2023-03-03T13:29:11;53.25;;;47.10;;
7693;SDS011;3889;48.162;11.510;2023-03-03T13:31:46;52.03;;;46.33;;
7693;SDS011;3889;48.162;11.510;2023-03-03T13:34:19;56.55;;;47.75;;
7693;SDS011;3889;48.162;11.510;2023-03-03T13:36:55;53.38;;;47.33;;
7693;SDS011;3889;48.162;11.510;2023-03-03T13:39:28;52.20;;;46.17;;
7693;SDS011;3889;48.162;11.510;2023-03-03T13:42:03;55.10;;;47.58;;
7693;SDS011;3889;48.162;11.510;2023-03-03T13:44:38;54.10;;;46.63;;
7693;SDS011;3889;48.162;11.510;2023-03-03T13:47:12;54.17;;;45.87;;
7693;SDS011;3889;48.162;11.510;2023-03-03T13:49:54;56.55;;;47.85;;
7693;SDS011;3889;48.162;11.510;2023-03-03T13:52:30;53.28;;;47.45;;
7693;SDS011;3889;48.162;11.510;2023-03-03T13:55:08;53.03;;;46.60;;
7693;SDS011;3889;48.162;11.510;2023-03-03T13:57:53;54.42;;;47.70;;
7693;SDS011;3889;48.162;11.510;2023-03-03T14:00:32;52.92;;;45.88;;
7693;SDS011;3889;48.162;11.510;2023-03-03T14:03:14;56.17;;;47.20;;
7693;SDS011;3889;48.162;11.510;2023-03-03T14:06:02;52.53;;;46.83;;
7693;SDS011;3889;48.162;11.510;2023-03-03T14:08:37;51.80;;;45.87;;
7693;SDS011;3889;48.162;11.510;2023-03-03T14:11:15;54.50;;;46.97;;
7693;SDS011;3889;48.162;11.510;2023-03-03T14:13:51;53.75;;;46.17;;
7693;SDS011;3889;48.162;11.510;2023-03-03T14:16:33;50.88;;;45.08;;
7693;SDS011;3889;48.162;11.510;2023-03-03T14:19:13;52.38;;;46.30;;
7693;SDS011;3889;48.162;11.510;2023-03-03T14:21:48;53.67;;;45.65;;
7693;SDS011;3889;48.162;11.510;2023-03-03T14:24:24;50.47;;;44.90;;
7693;SDS011;3889;48.162;11.510;2023-03-03T14:26:53;58.08;;;46.67;;
7693;SDS011;3889;48.162;11.510;2023-03-03T14:29:30;51.90;;;45.10;;
7693;SDS011;3889;48.162;11.510;2023-03-03T14:31:59;50.63;;;45.13;;
7693;SDS011;3889;48.162;11.510;2023-03-03T14:34:29;51.10;;;44.80;;
7693;SDS011;3889;48.162;11.510;2023-03-03T14:37:19;50.45;;;43.20;;
7693;SDS011;3889;48.162;11.510;2023-03-03T14:42:45;50.17;;;44.30;;
7693;SDS011;3889;48.162;11.510;2023-03-03T14:45:19;51.10;;;43.50;;
7693;SDS011;3889;48.162;11.510;2023-03-03T14:47:56;49.22;;;43.03;;
7693;SDS011;3889;48.162;11.510;2023-03-03T14:50:28;51.03;;;44.13;;
7693;SDS011;3889;48.162;11.510;2023-03-03T14:53:04;49.97;;;43.78;;
7693;SDS011;3889;48.162;11.510;2023-03-03T14:55:38;47.97;;;42.85;;
7693;SDS011;3889;48.162;11.510;2023-03-03T14:58:07;48.60;;;41.95;;
7693;SDS011;3889;48.162;11.510;2023-03-03T15:01:07;50.20;;;43.47;;
7693;SDS011;3889;48.162;11.510;2023-03-03T15:03:43;50.65;;;42.67;;
7693;SDS011;3889;48.162;11.510;2023-03-03T15:06:13;47.05;;;41.88;;
7693;SDS011;3889;48.162;11.510;2023-03-03T15:08:56;49.75;;;42.85;;
7693;SDS011;3889;48.162;11.510;2023-03-03T15:11:53;49.90;;;43.22;;
7693;SDS011;3889;48.162;11.510;2023-03-03T15:14:23;47.50;;;42.30;;
7693;SDS011;3889;48.162;11.510;2023-03-03T15:16:57;52.50;;;42.25;;
7693;SDS011;3889;48.162;11.510;2023-03-03T15:19:46;45.40;;;40.50;;
7693;SDS011;3889;48.162;11.510;2023-03-03T15:22:23;45.55;;;39.65;;
7693;SDS011;3889;48.162;11.510;2023-03-03T15:25:05;44.27;;;39.53;;
7693;SDS011;3889;48.162;11.510;2023-03-03T15:27:38;43.53;;;38.92;;
7693;SDS011;3889;48.162;11.510;2023-03-03T15:30:12;43.47;;;38.28;;
7693;SDS011;3889;48.162;11.510;2023-03-03T15:32:50;46.97;;;39.45;;
7693;SDS011;3889;48.162;11.510;2023-03-03T15:35:29;44.08;;;39.17;;
7693;SDS011;3889;48.162;11.510;2023-03-03T15:38:04;43.15;;;38.47;;
7693;SDS011;3889;48.162;11.510;2023-03-03T15:40:43;46.50;;;38.53;;
7693;SDS011;3889;48.162;11.510;2023-03-03T15:43:19;44.50;;;38.85;;
7693;SDS011;3889;48.162;11.510;2023-03-03T15:45:52;42.28;;;37.42;;
7693;SDS011;3889;48.162;11.510;2023-03-03T15:48:39;44.53;;;38.22;;